Time,TemperatureF,DewpointF,PressureIn,WindDirection,WindDirectionDegrees,WindSpeedMPH,WindSpeedGustMPH,Humidity,HourlyPrecipIn,Conditions,Clouds,dailyrainin,SolarRadiationWatts/m^2,SoftwareType,DateUTC
2013-01-14 00:05:00,57.3,55.3,30.14,NE,54,2.0,9.0,93,0.00,,,0.01,1071,Wunderground v.1.15,2013-01-14 05:05:00,
2013-01-14 00:10:00,57.2,55.2,30.14,North,351,2.0,2.0,93,0.00,,,0.01,1071,Wunderground v.1.15,2013-01-14 05:10:00,
2013-01-14 00:15:00,56.9,54.9,30.13,North,9,2.0,9.0,93,0.00,,,0.01,1071,Wunderground v.1.15,2013-01-14 05:15:00,
2013-01-14 00:20:00,56.6,54.6,30.13,North,6,1.0,9.0,93,0.00,,,0.01,1071,Wunderground v.1.15,2013-01-14 05:20:00,
2013-01-14 00:25:00,56.4,54.4,30.14,ENE,68,1.0,9.0,93,0.00,,,0.01,1071,Wunderground v.1.15,2013-01-14 05:25:00,
2013-01-14 00:30:00,56.4,54.4,30.14,NNW,333,1.0,9.0,93,0.00,,,0.02,1071,Wunderground v.1.15,2013-01-14 05:30:00,
2013-01-14 00:35:00,56.5,54.5,30.14,South,179,2.0,9.0,93,0.00,,,0.02,1071,Wunderground v.1.15,2013-01-14 05:35:00,
2013-01-14 00:40:00,56.6,54.6,30.14,WNW,282,1.0,9.0,93,0.00,,,0.02,1071,Wunderground v.1.15,2013-01-14 05:40:00,
2013-01-14 00:45:00,56.5,54.5,30.14,WSW,245,1.0,9.0,93,0.00,,,0.02,1071,Wunderground v.1.15,2013-01-14 05:45:00,
2013-01-14 00:50:00,56.5,54.5,30.14,ESE,103,1.0,1.0,93,0.00,,,0.02,1071,Wunderground v.1.15,2013-01-14 05:50:00,
2013-01-14 00:55:00,56.4,54.4,30.14,WSW,255,1.0,9.0,93,0.00,,,0.02,1071,Wunderground v.1.15,2013-01-14 05:55:00,
2013-01-14 01:00:00,56.4,54.7,30.14,West,259,1.0,5.0,94,0.00,,,0.02,1071,Wunderground v.1.15,2013-01-14 06:00:00,
2013-01-14 01:05:00,56.2,54.5,30.14,NNE,20,1.0,5.0,94,0.00,,,0.00,1071,Wunderground v.1.15,2013-01-14 06:05:00,
2013-01-14 01:15:00,55.8,53.8,30.14,SSW,194,1.0,5.0,93,0.00,,,0.00,1071,Wunderground v.1.15,2013-01-14 06:15:00,
2013-01-14 01:20:00,55.6,53.6,30.14,North,356,1.0,1.0,93,0.00,,,0.00,1071,Wunderground v.1.15,2013-01-14 06:20:00,
2013-01-14 01:25:00,55.6,53.9,30.14,WNW,297,0.0,5.0,94,0.00,,,0.00,1071,Wunderground v.1.15,2013-01-14 06:25:00,
2013-01-14 01:30:00,55.7,54.0,30.15,WSW,240,0.0,5.0,94,0.00,,,0.00,1071,Wunderground v.1.15,2013-01-14 06:30:00,
2013-01-14 01:40:00,56.0,54.3,30.15,NNW,348,0.0,5.0,94,0.00,,,0.00,1071,Wunderground v.1.15,2013-01-14 06:40:00,
2013-01-14 01:45:00,56.1,54.4,30.15,West,275,0.0,5.0,94,0.00,,,0.00,1071,Wunderground v.1.15,2013-01-14 06:45:00,
2013-01-14 01:50:00,56.3,54.6,30.15,WNW,289,1.0,5.0,94,0.00,,,0.00,1071,Wunderground v.1.15,2013-01-14 06:50:00,
2013-01-14 01:55:00,56.5,54.8,30.15,NE,36,1.0,5.0,94,0.00,,,0.00,1071,Wunderground v.1.15,2013-01-14 06:55:00,
2013-01-14 02:00:00,56.8,55.1,30.15,NNE,18,1.0,3.0,94,0.00,,,0.00,1071,Wunderground v.1.15,2013-01-14 07:00:00,
2013-01-14 02:10:00,57.3,55.6,30.15,SE,141,1.0,1.0,94,0.00,,,0.00,1071,Wunderground v.1.15,2013-01-14 07:10:00,
2013-01-14 02:15:00,57.3,55.6,30.15,SSW,212,1.0,3.0,94,0.00,,,0.00,1071,Wunderground v.1.15,2013-01-14 07:15:00,
2013-01-14 02:20:00,57.3,55.6,30.15,WSW,249,1.0,3.0,94,0.00,,,0.00,1071,Wunderground v.1.15,2013-01-14 07:20:00,
2013-01-14 02:25:00,57.2,55.5,30.16,East,100,2.0,3.0,94,0.00,,,0.00,1071,Wunderground v.1.15,2013-01-14 07:25:00,
2013-01-14 02:30:00,57.4,55.7,30.15,WSW,246,2.0,2.0,94,0.00,,,0.00,1071,Wunderground v.1.15,2013-01-14 07:30:00,
2013-01-14 02:35:00,57.3,55.6,30.16,ESE,118,2.0,3.0,94,0.00,,,0.00,1071,Wunderground v.1.15,2013-01-14 07:35:00,
2013-01-14 02:40:00,57.3,55.6,30.16,North,360,1.0,3.0,94,0.00,,,0.00,1071,Wunderground v.1.15,2013-01-14 07:40:00,
2013-01-14 02:45:00,57.3,55.6,30.16,NE,37,1.0,3.0,94,0.00,,,0.00,1071,Wunderground v.1.15,2013-01-14 07:45:00,
2013-01-14 02:50:00,57.2,55.5,30.16,NE,52,1.0,1.0,94,0.00,,,0.00,1071,Wunderground v.1.15,2013-01-14 07:50:00,
2013-01-14 02:55:00,57.1,55.4,30.15,WNW,293,1.0,3.0,94,0.00,,,0.00,1071,Wunderground v.1.15,2013-01-14 07:55:00,
2013-01-14 03:00:00,56.7,55.0,30.15,WNW,295,1.0,1.0,94,0.00,,,0.00,1071,Wunderground v.1.15,2013-01-14 08:00:00,
2013-01-14 03:05:00,56.4,54.7,30.15,WSW,245,0.0,5.0,94,0.00,,,0.00,1071,Wunderground v.1.15,2013-01-14 08:05:00,
2013-01-14 03:10:00,56.1,54.4,30.15,WNW,291,0.0,5.0,94,0.00,,,0.00,1071,Wunderground v.1.15,2013-01-14 08:10:00,
2013-01-14 03:15:00,55.9,54.2,30.14,SSW,204,0.0,5.0,94,0.00,,,0.00,1071,Wunderground v.1.15,2013-01-14 08:15:00,
2013-01-14 03:20:00,55.7,54.0,30.14,SW,236,0.0,5.0,94,0.00,,,0.00,1071,Wunderground v.1.15,2013-01-14 08:20:00,
2013-01-14 03:25:00,55.8,54.1,30.14,WNW,296,0.0,5.0,94,0.00,,,0.00,1071,Wunderground v.1.15,2013-01-14 08:25:00,
2013-01-14 03:30:00,55.8,54.1,30.14,West,278,0.0,5.0,94,0.00,,,0.00,1071,Wunderground v.1.15,2013-01-14 08:30:00,
2013-01-14 03:35:00,55.7,54.0,30.14,NE,50,0.0,5.0,94,0.00,,,0.00,1071,Wunderground v.1.15,2013-01-14 08:35:00,
2013-01-14 03:40:00,55.6,53.9,30.14,WSW,252,0.0,5.0,94,0.00,,,0.00,1071,Wunderground v.1.15,2013-01-14 08:40:00,
2013-01-14 03:45:00,55.5,53.8,30.13,West,273,1.0,5.0,94,0.00,,,0.00,1071,Wunderground v.1.15,2013-01-14 08:45:00,
2013-01-14 03:55:00,55.7,54.0,30.13,NW,318,0.0,5.0,94,0.00,,,0.00,1071,Wunderground v.1.15,2013-01-14 08:55:00,
2013-01-14 04:00:00,55.8,54.1,30.13,NW,308,0.0,3.0,94,0.00,,,0.00,1071,Wunderground v.1.15,2013-01-14 09:00:00,
2013-01-14 04:05:00,55.8,54.1,30.13,WNW,297,0.0,3.0,94,0.00,,,0.00,1071,Wunderground v.1.15,2013-01-14 09:05:00,
2013-01-14 04:10:00,55.9,54.2,30.12,WSW,249,1.0,3.0,94,0.00,,,0.00,1071,Wunderground v.1.15,2013-01-14 09:10:00,
2013-01-14 04:15:00,56.0,54.3,30.12,WSW,252,1.0,3.0,94,0.00,,,0.00,1071,Wunderground v.1.15,2013-01-14 09:15:00,
2013-01-14 04:20:00,55.8,54.1,30.11,West,262,1.0,3.0,94,0.00,,,0.00,1071,Wunderground v.1.15,2013-01-14 09:20:00,
2013-01-14 04:25:00,55.6,53.9,30.11,NW,322,1.0,3.0,94,0.00,,,0.00,1071,Wunderground v.1.15,2013-01-14 09:25:00,
2013-01-14 04:30:00,55.5,53.8,30.11,WNW,283,1.0,3.0,94,0.00,,,0.00,1071,Wunderground v.1.15,2013-01-14 09:30:00,
2013-01-14 04:40:00,55.4,53.7,30.11,WSW,256,1.0,3.0,94,0.00,,,0.00,1071,Wunderground v.1.15,2013-01-14 09:40:00,
2013-01-14 04:45:00,55.5,53.8,30.10,NE,37,1.0,3.0,94,0.00,,,0.00,1071,Wunderground v.1.15,2013-01-14 09:45:00,
2013-01-14 04:50:00,55.6,53.9,30.10,ENE,60,1.0,3.0,94,0.00,,,0.00,1071,Wunderground v.1.15,2013-01-14 09:50:00,
2013-01-14 04:55:00,55.5,53.8,30.11,West,273,1.0,3.0,94,0.00,,,0.00,1071,Wunderground v.1.15,2013-01-14 09:55:00,
2013-01-14 05:00:00,55.8,54.1,30.11,NW,309,2.0,2.0,94,0.00,,,0.00,1071,Wunderground v.1.15,2013-01-14 10:00:00,
2013-01-14 05:05:00,56.0,54.3,30.10,South,169,1.0,5.0,94,0.00,,,0.00,1071,Wunderground v.1.15,2013-01-14 10:05:00,
2013-01-14 05:10:00,56.3,54.6,30.10,NW,321,1.0,5.0,94,0.00,,,0.00,1071,Wunderground v.1.15,2013-01-14 10:10:00,
2013-01-14 05:15:00,56.2,54.5,30.10,WSW,238,1.0,5.0,94,0.00,,,0.00,1071,Wunderground v.1.15,2013-01-14 10:15:00,
2013-01-14 05:20:00,56.3,54.6,30.11,NNW,328,2.0,5.0,94,0.00,,,0.00,1071,Wunderground v.1.15,2013-01-14 10:20:00,
2013-01-14 05:25:00,57.3,55.6,30.12,West,264,3.0,5.0,94,0.00,,,0.00,1071,Wunderground v.1.15,2013-01-14 10:25:00,
2013-01-14 05:35:00,57.8,56.1,30.12,West,263,2.0,5.0,94,0.00,,,0.00,1071,Wunderground v.1.15,2013-01-14 10:35:00,
2013-01-14 05:40:00,57.8,56.1,30.12,NW,304,3.0,5.0,94,0.00,,,0.00,1071,Wunderground v.1.15,2013-01-14 10:40:00,
2013-01-14 05:45:00,57.6,55.9,30.12,NW,314,4.0,5.0,94,0.00,,,0.00,1071,Wunderground v.1.15,2013-01-14 10:45:00,
2013-01-14 05:50:00,57.5,55.8,30.12,SSW,201,4.0,4.0,94,0.00,,,0.00,1071,Wunderground v.1.15,2013-01-14 10:50:00,
2013-01-14 05:55:00,57.7,56.0,30.12,NNE,20,3.0,5.0,94,0.00,,,0.00,1071,Wunderground v.1.15,2013-01-14 10:55:00,
2013-01-14 06:00:00,58.1,56.4,30.13,NNW,346,2.0,7.0,94,0.00,,,0.00,1071,Wunderground v.1.15,2013-01-14 11:00:00,
2013-01-14 06:05:00,58.3,56.6,30.13,WNW,297,3.0,7.0,94,0.00,,,0.00,1071,Wunderground v.1.15,2013-01-14 11:05:00,
2013-01-14 06:10:00,58.4,56.7,30.13,WNW,285,3.0,3.0,94,0.00,,,0.00,1071,Wunderground v.1.15,2013-01-14 11:10:00,
2013-01-14 06:15:00,58.7,57.0,30.13,West,267,2.0,7.0,94,0.00,,,0.00,1071,Wunderground v.1.15,2013-01-14 11:15:00,
2013-01-14 06:20:00,59.0,57.3,30.13,NW,307,1.0,7.0,94,0.00,,,0.00,1071,Wunderground v.1.15,2013-01-14 11:20:00,
2013-01-14 06:25:00,59.0,57.3,30.13,WNW,295,1.0,7.0,94,0.00,,,0.00,1071,Wunderground v.1.15,2013-01-14 11:25:00,
2013-01-14 06:30:00,59.1,57.4,30.13,SSW,212,0.0,7.0,94,0.00,,,0.00,1071,Wunderground v.1.15,2013-01-14 11:30:00,
2013-01-14 06:35:00,59.1,57.4,30.14,WNW,283,0.0,7.0,94,0.00,,,0.00,1071,Wunderground v.1.15,2013-01-14 11:35:00,
2013-01-14 06:40:00,59.0,57.3,30.14,WNW,300,0.0,7.0,94,0.00,,,0.00,1071,Wunderground v.1.15,2013-01-14 11:40:00,
2013-01-14 06:45:00,58.8,57.1,30.14,WNW,300,0.0,7.0,94,0.00,,,0.00,1071,Wunderground v.1.15,2013-01-14 11:45:00,
2013-01-14 06:50:00,58.2,56.5,30.15,WSW,248,0.0,7.0,94,0.00,,,0.00,1071,Wunderground v.1.15,2013-01-14 11:50:00,
2013-01-14 06:55:00,57.7,55.7,30.15,WSW,257,0.0,7.0,93,0.00,,,0.00,1071,Wunderground v.1.15,2013-01-14 11:55:00,
2013-01-14 07:00:00,57.5,55.5,30.15,North,8,0.0,4.0,93,0.00,,,0.00,1071,Wunderground v.1.15,2013-01-14 12:00:00,
2013-01-14 07:05:00,57.5,55.8,30.15,NNW,335,0.0,4.0,94,0.00,,,0.00,1071,Wunderground v.1.15,2013-01-14 12:05:00,
2013-01-14 07:10:00,57.5,55.8,30.15,WNW,288,0.0,4.0,94,0.00,,,0.00,1071,Wunderground v.1.15,2013-01-14 12:10:00,
2013-01-14 07:15:00,57.4,55.7,30.15,NW,321,0.0,4.0,94,0.00,,,0.00,1071,Wunderground v.1.15,2013-01-14 12:15:00,
2013-01-14 07:20:00,57.5,55.8,30.15,NW,323,1.0,1.0,94,0.00,,,0.00,1071,Wunderground v.1.15,2013-01-14 12:20:00,
2013-01-14 07:25:00,57.6,55.9,30.15,WNW,294,0.0,4.0,94,0.00,,,0.01,1071,Wunderground v.1.15,2013-01-14 12:25:00,
2013-01-14 07:30:00,57.5,55.8,30.15,WNW,287,0.0,4.0,94,0.00,,,0.01,1071,Wunderground v.1.15,2013-01-14 12:30:00,
2013-01-14 07:35:00,57.8,56.1,30.16,North,356,0.0,4.0,94,0.00,,,0.01,1071,Wunderground v.1.15,2013-01-14 12:35:00,
2013-01-14 07:40:00,58.0,56.3,30.16,West,274,0.0,4.0,94,0.00,,,0.01,1071,Wunderground v.1.15,2013-01-14 12:40:00,
2013-01-14 07:45:00,57.5,55.8,30.16,WSW,255,0.0,4.0,94,0.00,,,0.01,1071,Wunderground v.1.15,2013-01-14 12:45:00,
2013-01-14 07:50:00,57.5,55.8,30.16,West,278,1.0,4.0,94,0.00,,,0.01,1071,Wunderground v.1.15,2013-01-14 12:50:00,
2013-01-14 07:55:00,58.0,56.3,30.16,NNW,337,0.0,4.0,94,0.00,,,0.01,1071,Wunderground v.1.15,2013-01-14 12:55:00,
2013-01-14 08:00:00,57.9,56.2,30.16,SE,128,0.0,2.0,94,0.00,,,0.01,1071,Wunderground v.1.15,2013-01-14 13:00:00,
2013-01-14 08:05:00,57.4,55.4,30.16,SW,228,0.0,2.0,93,0.00,,,0.01,1071,Wunderground v.1.15,2013-01-14 13:05:00,
2013-01-14 08:10:00,57.4,55.4,30.17,WSW,250,0.0,2.0,93,0.00,,,0.01,1071,Wunderground v.1.15,2013-01-14 13:10:00,
2013-01-14 08:15:00,57.7,56.0,30.17,WSW,249,0.0,2.0,94,0.00,,,0.01,1071,Wunderground v.1.15,2013-01-14 13:15:00,
2013-01-14 08:20:00,58.2,56.5,30.17,West,280,1.0,2.0,94,0.00,,,0.01,1071,Wunderground v.1.15,2013-01-14 13:20:00,
2013-01-14 08:25:00,58.9,57.2,30.17,WSW,252,1.0,2.0,94,0.00,,,0.01,1071,Wunderground v.1.15,2013-01-14 13:25:00,
2013-01-14 08:30:00,59.0,57.3,30.17,SW,217,1.0,2.0,94,0.00,,,0.01,1071,Wunderground v.1.15,2013-01-14 13:30:00,
2013-01-14 08:35:00,58.9,57.2,30.17,North,4,1.0,2.0,94,0.00,,,0.01,1071,Wunderground v.1.15,2013-01-14 13:35:00,
2013-01-14 08:40:00,58.9,57.2,30.17,NNE,30,1.0,1.0,94,0.00,,,0.01,1071,Wunderground v.1.15,2013-01-14 13:40:00,
2013-01-14 08:45:00,59.2,57.5,30.18,West,264,1.0,2.0,94,0.00,,,0.01,1071,Wunderground v.1.15,2013-01-14 13:45:00,
2013-01-14 08:50:00,60.0,58.3,30.18,SSW,197,1.0,2.0,94,0.00,,,0.01,1071,Wunderground v.1.15,2013-01-14 13:50:00,
2013-01-14 08:55:00,60.6,58.9,30.18,SW,227,2.0,2.0,94,0.00,,,0.01,1071,Wunderground v.1.15,2013-01-14 13:55:00,
2013-01-14 09:00:00,60.6,58.9,30.18,WSW,246,2.0,5.0,94,0.00,,,0.01,1071,Wunderground v.1.15,2013-01-14 14:00:00,
2013-01-14 09:05:00,60.1,58.4,30.18,West,276,1.0,5.0,94,0.00,,,0.01,1071,Wunderground v.1.15,2013-01-14 14:05:00,
2013-01-14 09:10:00,59.9,57.9,30.18,NW,306,2.0,2.0,93,0.00,,,0.01,1071,Wunderground v.1.15,2013-01-14 14:10:00,
2013-01-14 09:15:00,59.5,57.5,30.18,West,277,1.0,3.0,93,0.00,,,0.01,1071,Wunderground v.1.15,2013-01-14 14:15:00,
2013-01-14 09:20:00,59.4,57.4,30.19,WNW,298,1.0,3.0,93,0.00,,,0.01,1071,Wunderground v.1.15,2013-01-14 14:20:00,
2013-01-14 09:25:00,59.4,57.4,30.18,WSW,257,1.0,4.0,93,0.00,,,0.01,1071,Wunderground v.1.15,2013-01-14 14:25:00,
2013-01-14 09:30:00,59.4,57.4,30.18,North,359,1.0,1.0,93,0.00,,,0.01,1071,Wunderground v.1.15,2013-01-14 14:30:00,
2013-01-14 09:35:00,59.0,57.0,30.18,West,274,1.0,2.0,93,0.00,,,0.01,1071,Wunderground v.1.15,2013-01-14 14:35:00,
2013-01-14 09:40:00,58.6,56.3,30.18,North,6,1.0,1.0,92,0.00,,,0.01,1071,Wunderground v.1.15,2013-01-14 14:40:00,
2013-01-14 09:45:00,58.6,56.6,30.18,West,273,1.0,2.0,93,0.00,,,0.01,1071,Wunderground v.1.15,2013-01-14 14:45:00,
2013-01-14 09:50:00,58.6,56.6,30.18,SSE,148,1.0,3.0,93,0.00,,,0.01,1071,Wunderground v.1.15,2013-01-14 14:50:00,
2013-01-14 09:55:00,58.8,56.8,30.18,West,278,1.0,3.0,93,0.00,,,0.01,1071,Wunderground v.1.15,2013-01-14 14:55:00,
2013-01-14 10:00:00,59.0,57.0,30.18,NE,40,1.0,1.0,93,0.00,,,0.01,1071,Wunderground v.1.15,2013-01-14 15:00:00,
2013-01-14 10:05:00,59.4,57.4,30.18,SE,130,1.0,4.0,93,0.00,,,0.01,1071,Wunderground v.1.15,2013-01-14 15:05:00,
2013-01-14 10:10:00,59.4,57.4,30.18,West,270,1.0,4.0,93,0.00,,,0.01,1071,Wunderground v.1.15,2013-01-14 15:10:00,
2013-01-14 10:15:00,59.6,57.6,30.18,NW,308,1.0,4.0,93,0.00,,,0.01,1071,Wunderground v.1.15,2013-01-14 15:15:00,
2013-01-14 10:20:00,60.6,58.6,30.18,NNE,19,1.0,1.0,93,0.00,,,0.01,1071,Wunderground v.1.15,2013-01-14 15:20:00,
2013-01-14 10:25:00,61.5,59.8,30.18,NW,309,1.0,2.0,94,0.00,,,0.01,1071,Wunderground v.1.15,2013-01-14 15:25:00,
2013-01-14 10:30:00,62.5,60.7,30.18,NW,318,2.0,4.0,94,0.00,,,0.01,1071,Wunderground v.1.15,2013-01-14 15:30:00,
2013-01-14 10:35:00,62.8,61.0,30.18,WNW,294,3.0,4.0,94,0.00,,,0.01,1071,Wunderground v.1.15,2013-01-14 15:35:00,
2013-01-14 10:40:00,63.0,60.9,30.18,WNW,288,3.0,4.0,93,0.00,,,0.01,1071,Wunderground v.1.15,2013-01-14 15:40:00,
2013-01-14 10:45:00,63.1,61.0,30.18,WNW,294,3.0,4.0,93,0.00,,,0.01,1071,Wunderground v.1.15,2013-01-14 15:45:00,
2013-01-14 10:50:00,63.5,61.4,30.18,West,271,3.0,3.0,93,0.00,,,0.01,1071,Wunderground v.1.15,2013-01-14 15:50:00,
2013-01-14 10:55:00,63.3,60.6,30.18,NW,315,2.0,4.0,91,0.00,,,0.01,1071,Wunderground v.1.15,2013-01-14 15:55:00,
2013-01-14 11:00:00,62.6,59.6,30.18,South,190,1.0,5.0,90,0.00,,,0.01,1071,Wunderground v.1.15,2013-01-14 16:00:00,
2013-01-14 11:05:00,62.0,59.0,30.17,SSW,199,2.0,5.0,90,0.00,,,0.01,1071,Wunderground v.1.15,2013-01-14 16:05:00,
2013-01-14 11:10:00,61.6,58.6,30.17,SSW,211,2.0,2.0,90,0.00,,,0.01,1071,Wunderground v.1.15,2013-01-14 16:10:00,
2013-01-14 11:15:00,61.0,58.0,30.17,NE,36,2.0,5.0,90,0.00,,,0.01,1071,Wunderground v.1.15,2013-01-14 16:15:00,
2013-01-14 11:20:00,60.2,57.3,30.16,NE,53,2.0,5.0,90,0.00,,,0.01,1071,Wunderground v.1.15,2013-01-14 16:20:00,
2013-01-14 11:25:00,59.7,56.8,30.15,SSW,197,2.0,5.0,90,0.00,,,0.01,1071,Wunderground v.1.15,2013-01-14 16:25:00,
2013-01-14 11:30:00,59.7,57.1,30.15,West,269,2.0,5.0,91,0.00,,,0.01,1071,Wunderground v.1.15,2013-01-14 16:30:00,
2013-01-14 11:35:00,60.1,57.5,30.15,WSW,239,2.0,5.0,91,0.00,,,0.01,1071,Wunderground v.1.15,2013-01-14 16:35:00,
2013-01-14 11:40:00,60.6,58.0,30.15,NNW,337,2.0,2.0,91,0.00,,,0.01,1071,Wunderground v.1.15,2013-01-14 16:40:00,
2013-01-14 11:45:00,61.3,58.7,30.15,ESE,105,1.0,5.0,91,0.00,,,0.01,1071,Wunderground v.1.15,2013-01-14 16:45:00,
2013-01-14 11:50:00,61.9,59.2,30.15,West,274,1.0,5.0,91,0.00,,,0.01,1071,Wunderground v.1.15,2013-01-14 16:50:00,
2013-01-14 11:55:00,62.0,59.0,30.15,North,5,2.0,5.0,90,0.00,,,0.01,1071,Wunderground v.1.15,2013-01-14 16:55:00,
2013-01-14 12:00:00,62.2,58.9,30.15,West,262,2.0,6.0,89,0.00,,,0.01,1071,Wunderground v.1.15,2013-01-14 17:00:00,
2013-01-14 12:10:00,63.0,59.7,30.14,SSE,162,2.0,2.0,89,0.00,,,0.01,1071,Wunderground v.1.15,2013-01-14 17:10:00,
2013-01-14 12:15:00,63.2,59.6,30.14,NNE,18,2.0,6.0,88,0.00,,,0.01,1071,Wunderground v.1.15,2013-01-14 17:15:00,
2013-01-14 12:20:00,63.5,59.9,30.14,West,278,2.0,6.0,88,0.00,,,0.01,1071,Wunderground v.1.15,2013-01-14 17:20:00,
2013-01-14 12:25:00,63.9,60.3,30.13,NNE,25,2.0,6.0,88,0.00,,,0.01,1071,Wunderground v.1.15,2013-01-14 17:25:00,
2013-01-14 12:30:00,64.1,60.5,30.13,ENE,74,3.0,6.0,88,0.00,,,0.01,1071,Wunderground v.1.15,2013-01-14 17:30:00,
2013-01-14 12:35:00,64.3,60.7,30.13,East,89,3.0,6.0,88,0.00,,,0.01,1071,Wunderground v.1.15,2013-01-14 17:35:00,
2013-01-14 12:40:00,64.5,60.5,30.13,SW,219,3.0,6.0,87,0.00,,,0.01,1071,Wunderground v.1.15,2013-01-14 17:40:00,
2013-01-14 12:45:00,64.6,60.6,30.13,SSE,163,3.0,6.0,87,0.00,,,0.01,1071,Wunderground v.1.15,2013-01-14 17:45:00,
2013-01-14 12:50:00,64.9,60.9,30.13,North,4,2.0,6.0,87,0.00,,,0.01,1071,Wunderground v.1.15,2013-01-14 17:50:00,
2013-01-14 12:55:00,65.0,60.7,30.12,NE,36,2.0,6.0,86,0.00,,,0.01,1071,Wunderground v.1.15,2013-01-14 17:55:00,
2013-01-14 13:00:00,64.9,60.6,30.12,North,360,3.0,7.0,86,0.00,,,0.01,1071,Wunderground v.1.15,2013-01-14 18:00:00,
2013-01-14 13:10:00,65.5,61.5,30.12,West,271,3.0,7.0,87,0.00,,,0.01,1071,Wunderground v.1.15,2013-01-14 18:10:00,
2013-01-14 13:15:00,66.2,62.2,30.12,West,276,3.0,7.0,87,0.00,,,0.01,1071,Wunderground v.1.15,2013-01-14 18:15:00,
2013-01-14 13:20:00,67.0,62.7,30.12,SSE,163,4.0,7.0,86,0.00,,,0.01,1071,Wunderground v.1.15,2013-01-14 18:20:00,
2013-01-14 13:25:00,67.3,62.6,30.12,WNW,282,4.0,7.0,85,0.00,,,0.01,1071,Wunderground v.1.15,2013-01-14 18:25:00,
2013-01-14 13:30:00,67.7,63.0,30.11,NNW,342,4.0,4.0,85,0.00,,,0.01,1071,Wunderground v.1.15,2013-01-14 18:30:00,
2013-01-14 13:35:00,68.1,63.1,30.11,NE,43,4.0,7.0,84,0.00,,,0.01,1071,Wunderground v.1.15,2013-01-14 18:35:00,
2013-01-14 13:40:00,67.9,62.9,30.11,WSW,256,4.0,4.0,84,0.00,,,0.01,1071,Wunderground v.1.15,2013-01-14 18:40:00,
2013-01-14 13:45:00,67.7,62.7,30.11,WSW,249,4.0,7.0,84,0.00,,,0.01,1071,Wunderground v.1.15,2013-01-14 18:45:00,
2013-01-14 13:50:00,67.6,62.3,30.11,North,11,4.0,4.0,83,0.00,,,0.01,1071,Wunderground v.1.15,2013-01-14 18:50:00,
2013-01-14 13:55:00,67.1,61.8,30.11,WSW,256,4.0,5.0,83,0.00,,,0.01,1071,Wunderground v.1.15,2013-01-14 18:55:00,
2013-01-14 14:00:00,66.4,60.7,30.11,NNW,333,3.0,12.0,82,0.00,,,0.01,1071,Wunderground v.1.15,2013-01-14 19:00:00,
2013-01-14 14:10:00,65.1,60.1,30.11,NNW,337,3.0,3.0,84,0.00,,,0.01,1071,Wunderground v.1.15,2013-01-14 19:10:00,
2013-01-14 14:15:00,64.9,59.9,30.11,SW,219,2.0,12.0,84,0.00,,,0.01,1071,Wunderground v.1.15,2013-01-14 19:15:00,
2013-01-14 14:20:00,64.7,60.1,30.12,SW,219,2.0,12.0,85,0.00,,,0.01,1071,Wunderground v.1.15,2013-01-14 19:20:00,
2013-01-14 14:25:00,64.8,60.2,30.12,SW,228,2.0,12.0,85,0.00,,,0.01,1071,Wunderground v.1.15,2013-01-14 19:25:00,
2013-01-14 14:30:00,64.8,60.2,30.12,NE,53,2.0,12.0,85,0.00,,,0.01,1071,Wunderground v.1.15,2013-01-14 19:30:00,
2013-01-14 14:35:00,64.8,60.2,30.12,WSW,240,3.0,12.0,85,0.00,,,0.01,1071,Wunderground v.1.15,2013-01-14 19:35:00,
2013-01-14 14:40:00,65.0,60.4,30.12,SE,138,2.0,12.0,85,0.00,,,0.01,1071,Wunderground v.1.15,2013-01-14 19:40:00,
2013-01-14 14:45:00,64.8,60.2,30.12,ENE,59,2.0,12.0,85,0.00,,,0.01,1071,Wunderground v.1.15,2013-01-14 19:45:00,
2013-01-14 14:50:00,64.6,60.3,30.12,ENE,61,3.0,3.0,86,0.00,,,0.01,1071,Wunderground v.1.15,2013-01-14 19:50:00,
2013-01-14 14:55:00,64.6,60.3,30.12,SSE,151,3.0,12.0,86,0.00,,,0.01,1071,Wunderground v.1.15,2013-01-14 19:55:00,
2013-01-14 15:00:00,64.5,59.9,30.12,NW,314,3.0,7.0,85,0.00,,,0.01,1071,Wunderground v.1.15,2013-01-14 20:00:00,
2013-01-14 15:10:00,64.1,59.8,30.12,West,259,2.0,2.0,86,0.00,,,0.01,1071,Wunderground v.1.15,2013-01-14 20:10:00,
2013-01-14 15:15:00,64.1,59.8,30.12,West,277,2.0,5.0,86,0.00,,,0.01,1071,Wunderground v.1.15,2013-01-14 20:15:00,
2013-01-14 15:25:00,64.0,60.1,30.12,ENE,68,4.0,4.0,87,0.00,,,0.01,1071,Wunderground v.1.15,2013-01-14 20:25:00,
2013-01-14 15:30:00,63.8,59.9,30.13,NE,37,4.0,7.0,87,0.00,,,0.01,1071,Wunderground v.1.15,2013-01-14 20:30:00,
2013-01-14 15:35:00,63.7,59.8,30.13,WNW,302,3.0,7.0,87,0.00,,,0.01,1071,Wunderground v.1.15,2013-01-14 20:35:00,
2013-01-14 15:40:00,63.8,59.9,30.13,SSW,196,3.0,3.0,87,0.00,,,0.01,1071,Wunderground v.1.15,2013-01-14 20:40:00,
2013-01-14 15:45:00,63.8,59.9,30.13,North,11,3.0,7.0,87,0.00,,,0.01,1071,Wunderground v.1.15,2013-01-14 20:45:00,
2013-01-14 15:50:00,63.9,60.0,30.13,East,79,3.0,3.0,87,0.00,,,0.01,1071,Wunderground v.1.15,2013-01-14 20:50:00,
2013-01-14 15:55:00,63.9,60.0,30.13,SW,228,3.0,7.0,87,0.00,,,0.01,1071,Wunderground v.1.15,2013-01-14 20:55:00,
2013-01-14 16:00:00,63.8,59.9,30.13,NE,47,3.0,3.0,87,0.00,,,0.01,1071,Wunderground v.1.15,2013-01-14 21:00:00,
2013-01-14 16:10:00,63.6,59.7,30.13,NNE,27,3.0,3.0,87,0.00,,,0.01,1071,Wunderground v.1.15,2013-01-14 21:10:00,
2013-01-14 16:15:00,63.2,59.3,30.13,ENE,57,3.0,11.0,87,0.00,,,0.01,1071,Wunderground v.1.15,2013-01-14 21:15:00,
2013-01-14 16:20:00,62.7,59.1,30.13,NW,308,3.0,3.0,88,0.00,,,0.01,1071,Wunderground v.1.15,2013-01-14 21:20:00,
2013-01-14 16:25:00,62.3,58.7,30.14,NE,47,2.0,5.0,88,0.00,,,0.01,1071,Wunderground v.1.15,2013-01-14 21:25:00,
2013-01-14 16:35:00,61.7,58.4,30.14,NNW,347,3.0,11.0,89,0.00,,,0.01,1071,Wunderground v.1.15,2013-01-14 21:35:00,
2013-01-14 16:40:00,61.6,58.3,30.14,WSW,243,2.0,11.0,89,0.00,,,0.01,1071,Wunderground v.1.15,2013-01-14 21:40:00,
2013-01-14 16:45:00,61.2,57.9,30.14,NW,304,2.0,11.0,89,0.00,,,0.01,1071,Wunderground v.1.15,2013-01-14 21:45:00,
2013-01-14 16:50:00,60.8,57.5,30.14,SSW,212,2.0,11.0,89,0.00,,,0.01,1071,Wunderground v.1.15,2013-01-14 21:50:00,
2013-01-14 16:55:00,60.5,57.6,30.14,SW,229,2.0,11.0,90,0.00,,,0.01,1071,Wunderground v.1.15,2013-01-14 21:55:00,
2013-01-14 17:00:00,60.3,57.4,30.15,NW,314,2.0,8.0,90,0.00,,,0.01,1071,Wunderground v.1.15,2013-01-14 22:00:00,
2013-01-14 17:05:00,60.1,57.2,30.14,WNW,283,2.0,8.0,90,0.00,,,0.01,1071,Wunderground v.1.15,2013-01-14 22:05:00,
2013-01-14 17:10:00,59.9,57.3,30.15,WNW,288,2.0,2.0,91,0.00,,,0.01,1071,Wunderground v.1.15,2013-01-14 22:10:00,
2013-01-14 17:15:00,59.8,57.2,30.15,ENE,59,2.0,8.0,91,0.00,,,0.01,1071,Wunderground v.1.15,2013-01-14 22:15:00,
2013-01-14 17:20:00,59.9,57.3,30.15,East,92,3.0,8.0,91,0.00,,,0.01,1071,Wunderground v.1.15,2013-01-14 22:20:00,
2013-01-14 17:25:00,59.9,57.3,30.15,WNW,294,3.0,8.0,91,0.00,,,0.01,1071,Wunderground v.1.15,2013-01-14 22:25:00,
2013-01-14 17:30:00,59.7,57.1,30.15,NNE,33,3.0,3.0,91,0.00,,,0.01,1071,Wunderground v.1.15,2013-01-14 22:30:00,
2013-01-14 17:35:00,59.7,57.4,30.15,SSW,208,2.0,4.0,92,0.00,,,0.01,1071,Wunderground v.1.15,2013-01-14 22:35:00,
2013-01-14 17:40:00,59.9,57.6,30.15,NNE,16,3.0,8.0,92,0.00,,,0.01,1071,Wunderground v.1.15,2013-01-14 22:40:00,
2013-01-14 17:45:00,59.9,57.6,30.16,NE,53,3.0,8.0,92,0.00,,,0.01,1071,Wunderground v.1.15,2013-01-14 22:45:00,
2013-01-14 17:50:00,59.7,57.4,30.16,North,9,2.0,8.0,92,0.00,,,0.01,1071,Wunderground v.1.15,2013-01-14 22:50:00,
2013-01-14 17:55:00,59.7,57.4,30.16,ESE,114,2.0,8.0,92,0.00,,,0.01,1071,Wunderground v.1.15,2013-01-14 22:55:00,
2013-01-14 18:00:00,59.6,57.3,30.16,NE,50,3.0,3.0,92,0.00,,,0.01,1071,Wunderground v.1.15,2013-01-14 23:00:00,
2013-01-14 18:05:00,59.7,57.4,30.16,NNE,30,3.0,7.0,92,0.00,,,0.01,1071,Wunderground v.1.15,2013-01-14 23:05:00,
2013-01-14 18:10:00,59.7,57.4,30.16,SW,232,2.0,7.0,92,0.00,,,0.01,1071,Wunderground v.1.15,2013-01-14 23:10:00,
2013-01-14 18:20:00,59.7,57.4,30.16,West,278,3.0,7.0,92,0.00,,,0.01,1071,Wunderground v.1.15,2013-01-14 23:20:00,
2013-01-14 18:25:00,59.5,57.2,30.16,NNW,335,3.0,7.0,92,0.00,,,0.01,1071,Wunderground v.1.15,2013-01-14 23:25:00,
2013-01-14 18:30:00,59.5,57.2,30.16,WSW,249,3.0,3.0,92,0.00,,,0.01,1071,Wunderground v.1.15,2013-01-14 23:30:00,
2013-01-14 18:35:00,59.2,56.9,30.16,West,274,2.0,7.0,92,0.00,,,0.01,1071,Wunderground v.1.15,2013-01-14 23:35:00,
2013-01-14 18:40:00,59.1,56.8,30.16,WSW,250,2.0,7.0,92,0.00,,,0.01,1071,Wunderground v.1.15,2013-01-14 23:40:00,
2013-01-14 18:45:00,58.9,56.6,30.16,SW,215,2.0,7.0,92,0.00,,,0.01,1071,Wunderground v.1.15,2013-01-14 23:45:00,
2013-01-14 18:50:00,58.7,56.4,30.16,NW,309,2.0,7.0,92,0.00,,,0.01,1071,Wunderground v.1.15,2013-01-14 23:50:00,
2013-01-14 18:55:00,58.6,56.3,30.16,WSW,249,2.0,7.0,92,0.00,,,0.01,1071,Wunderground v.1.15,2013-01-14 23:55:00,
2013-01-14 19:00:00,58.4,56.1,30.16,West,277,2.0,2.0,92,0.00,,,0.01,1071,Wunderground v.1.15,2013-01-15 00:00:00,
2013-01-14 19:05:00,58.2,55.9,30.16,North,4,2.0,8.0,92,0.00,,,0.01,1071,Wunderground v.1.15,2013-01-15 00:05:00,
2013-01-14 19:10:00,57.9,55.6,30.16,SSW,211,1.0,8.0,92,0.00,,,0.01,1071,Wunderground v.1.15,2013-01-15 00:10:00,
2013-01-14 19:15:00,57.9,55.9,30.15,SSE,158,1.0,8.0,93,0.00,,,0.01,1071,Wunderground v.1.15,2013-01-15 00:15:00,
2013-01-14 19:20:00,57.8,55.8,30.15,NNW,335,1.0,8.0,93,0.00,,,0.01,1071,Wunderground v.1.15,2013-01-15 00:20:00,
2013-01-14 19:25:00,57.9,55.9,30.15,East,94,1.0,8.0,93,0.00,,,0.01,1071,Wunderground v.1.15,2013-01-15 00:25:00,
2013-01-14 19:30:00,57.9,55.9,30.15,West,259,1.0,8.0,93,0.00,,,0.01,1071,Wunderground v.1.15,2013-01-15 00:30:00,
2013-01-14 19:35:00,57.8,55.8,30.15,NE,54,2.0,8.0,93,0.00,,,0.01,1071,Wunderground v.1.15,2013-01-15 00:35:00,
2013-01-14 19:40:00,57.8,55.8,30.15,West,273,1.0,8.0,93,0.00,,,0.01,1071,Wunderground v.1.15,2013-01-15 00:40:00,
2013-01-14 19:45:00,57.7,55.7,30.15,South,190,1.0,8.0,93,0.00,,,0.01,1071,Wunderground v.1.15,2013-01-15 00:45:00,
2013-01-14 19:50:00,57.5,55.5,30.15,SW,231,1.0,8.0,93,0.00,,,0.01,1071,Wunderground v.1.15,2013-01-15 00:50:00,
2013-01-14 19:55:00,57.3,55.3,30.15,WSW,249,1.0,8.0,93,0.00,,,0.01,1071,Wunderground v.1.15,2013-01-15 00:55:00,
2013-01-14 20:00:00,57.0,55.0,30.15,SSW,210,2.0,5.0,93,0.00,,,0.01,1071,Wunderground v.1.15,2013-01-15 01:00:00,
2013-01-14 20:05:00,57.1,55.1,30.15,NW,321,2.0,5.0,93,0.00,,,0.01,1071,Wunderground v.1.15,2013-01-15 01:05:00,
2013-01-14 20:10:00,57.2,55.2,30.15,NE,51,1.0,5.0,93,0.00,,,0.01,1071,Wunderground v.1.15,2013-01-15 01:10:00,
2013-01-14 20:15:00,57.1,55.1,30.15,NE,36,2.0,5.0,93,0.00,,,0.01,1071,Wunderground v.1.15,2013-01-15 01:15:00,
2013-01-14 20:20:00,57.4,55.4,30.15,NE,41,2.0,2.0,93,0.00,,,0.01,1071,Wunderground v.1.15,2013-01-15 01:20:00,
2013-01-14 20:25:00,57.5,55.5,30.15,West,262,2.0,3.0,93,0.00,,,0.01,1071,Wunderground v.1.15,2013-01-15 01:25:00,
2013-01-14 20:30:00,57.5,55.5,30.15,NE,56,1.0,5.0,93,0.00,,,0.01,1071,Wunderground v.1.15,2013-01-15 01:30:00,
2013-01-14 20:35:00,57.4,55.4,30.15,WSW,256,2.0,5.0,93,0.00,,,0.01,1071,Wunderground v.1.15,2013-01-15 01:35:00,
2013-01-14 20:40:00,57.4,55.4,30.15,NNW,341,2.0,2.0,93,0.00,,,0.01,1071,Wunderground v.1.15,2013-01-15 01:40:00,
2013-01-14 20:50:00,57.4,55.4,30.15,South,191,2.0,5.0,93,0.00,,,0.01,1071,Wunderground v.1.15,2013-01-15 01:50:00,
2013-01-14 20:55:00,57.4,55.4,30.15,NNW,329,2.0,5.0,93,0.00,,,0.01,1071,Wunderground v.1.15,2013-01-15 01:55:00,
2013-01-14 21:00:00,57.4,55.4,30.15,WSW,255,2.0,2.0,93,0.00,,,0.01,1071,Wunderground v.1.15,2013-01-15 02:00:00,
2013-01-14 21:05:00,57.2,55.2,30.15,WSW,240,2.0,6.0,93,0.00,,,0.01,1071,Wunderground v.1.15,2013-01-15 02:05:00,
2013-01-14 21:10:00,57.3,55.3,30.15,WSW,240,2.0,6.0,93,0.00,,,0.01,1071,Wunderground v.1.15,2013-01-15 02:10:00,
2013-01-14 21:20:00,57.3,55.3,30.15,NNE,23,2.0,2.0,93,0.00,,,0.01,1071,Wunderground v.1.15,2013-01-15 02:20:00,
2013-01-14 21:25:00,57.6,55.6,30.15,WNW,291,2.0,4.0,93,0.00,,,0.01,1071,Wunderground v.1.15,2013-01-15 02:25:00,
2013-01-14 21:30:00,58.0,56.0,30.15,WSW,250,2.0,6.0,93,0.00,,,0.01,1071,Wunderground v.1.15,2013-01-15 02:30:00,
2013-01-14 21:35:00,58.3,56.3,30.15,West,278,3.0,6.0,93,0.00,,,0.01,1071,Wunderground v.1.15,2013-01-15 02:35:00,